createdAt,value
2022-10-31T00:00:30.399Z,43.70
2022-10-31T00:02:57.574Z,45.23
2022-10-31T00:05:24.535Z,42.53
2022-10-31T00:07:54.029Z,41.97
2022-10-31T00:10:20.834Z,46.87
2022-10-31T00:12:47.605Z,43.53
2022-10-31T00:15:14.381Z,46.33
2022-10-31T00:17:41.239Z,47.93
2022-10-31T00:20:08.580Z,46.73
2022-10-31T00:22:35.332Z,49.27
2022-10-31T00:25:02.118Z,48.70
2022-10-31T00:27:28.953Z,53.23
2022-10-31T00:29:55.796Z,49.07
2022-10-31T00:32:22.580Z,50.03
2022-10-31T00:34:49.369Z,49.60
2022-10-31T00:37:16.141Z,50.20
2022-10-31T00:39:42.899Z,51.77
2022-10-31T00:42:09.696Z,47.23
2022-10-31T00:44:36.458Z,46.63
2022-10-31T00:47:03.256Z,47.10
2022-10-31T00:49:30.040Z,47.37
2022-10-31T00:51:56.872Z,47.37
2022-10-31T00:54:23.658Z,55.80
2022-10-31T00:56:50.716Z,54.07
2022-10-31T00:59:17.511Z,55.07
2022-10-31T01:01:44.370Z,55.20
2022-10-31T01:04:11.292Z,55.93
2022-10-31T01:06:38.106Z,55.67
2022-10-31T01:09:04.896Z,53.90
2022-10-31T01:11:31.653Z,50.57
2022-10-31T01:13:58.533Z,49.13
2022-10-31T01:16:26.285Z,51.40
2022-10-31T01:18:53.146Z,51.23
2022-10-31T01:21:21.687Z,47.70
2022-10-31T01:23:48.552Z,50.70
2022-10-31T01:26:20.745Z,50.30
2022-10-31T01:28:52.316Z,48.87
2022-10-31T01:31:20.091Z,52.37
2022-10-31T01:33:46.970Z,42.80
2022-10-31T01:36:23.792Z,44.03
2022-10-31T01:38:50.785Z,46.43
2022-10-31T01:41:20.349Z,52.20
2022-10-31T01:43:48.605Z,51.33
2022-10-31T01:46:15.844Z,53.10
2022-10-31T01:48:43.492Z,53.10
2022-10-31T01:51:11.056Z,51.13
2022-10-31T01:53:37.874Z,54.80
2022-10-31T01:56:04.910Z,52.53
2022-10-31T01:58:31.719Z,51.77
2022-10-31T02:01:03.236Z,43.73
2022-10-31T02:03:33.541Z,47.20
2022-10-31T02:06:00.619Z,47.23
2022-10-31T02:08:34.488Z,49.43
2022-10-31T02:11:01.910Z,49.03
2022-10-31T02:13:29.338Z,47.10
2022-10-31T02:15:58.346Z,50.50
2022-10-31T02:18:26.398Z,56.23
2022-10-31T02:21:00.372Z,54.70
2022-10-31T02:23:47.845Z,55.10
2022-10-31T02:26:23.160Z,52.30
2022-10-31T02:29:08.436Z,52.63
2022-10-31T02:31:47.563Z,51.30
2022-10-31T02:34:20.781Z,53.53
2022-10-31T02:37:03.037Z,55.47
2022-10-31T02:39:37.952Z,56.67
2022-10-31T02:42:32.971Z,53.43
2022-10-31T02:45:07.054Z,54.00
2022-10-31T02:47:35.991Z,54.37
2022-10-31T02:50:08.261Z,57.27
2022-10-31T02:52:35.673Z,60.40
2022-10-31T02:55:31.256Z,61.67
2022-10-31T02:58:10.242Z,56.17
2022-10-31T03:00:44.791Z,54.67
2022-10-31T03:03:38.396Z,52.03
2022-10-31T03:06:12.132Z,57.73
2022-10-31T03:08:41.676Z,55.27
2022-10-31T03:11:08.804Z,54.77
2022-10-31T03:13:46.736Z,47.77
2022-10-31T03:16:19.735Z,55.40
2022-10-31T03:19:05.721Z,50.37
2022-10-31T03:21:38.250Z,54.83
2022-10-31T03:24:05.348Z,54.50
2022-10-31T03:26:32.171Z,56.63
2022-10-31T03:29:01.873Z,54.40
2022-10-31T03:31:33.119Z,51.33
2022-10-31T03:34:00.871Z,53.33
2022-10-31T03:36:27.869Z,52.63
2022-10-31T03:38:54.694Z,49.80
2022-10-31T03:41:22.876Z,50.37
2022-10-31T03:44:00.826Z,53.73
2022-10-31T03:46:27.640Z,53.07
2022-10-31T03:48:54.405Z,53.77
2022-10-31T03:51:31.334Z,54.23
2022-10-31T03:54:25.112Z,55.77
2022-10-31T03:57:12.334Z,51.07
2022-10-31T03:59:46.206Z,51.83
2022-10-31T04:02:15.940Z,49.53
2022-10-31T04:04:43.524Z,49.73
2022-10-31T04:07:10.340Z,51.73
2022-10-31T04:09:38.039Z,52.20
2022-10-31T04:12:06.451Z,45.07
2022-10-31T04:14:33.336Z,56.30
2022-10-31T04:17:00.092Z,54.27
2022-10-31T04:19:26.880Z,52.23
2022-10-31T04:21:53.656Z,53.97
2022-10-31T04:24:20.505Z,53.93
2022-10-31T04:26:47.289Z,53.67
2022-10-31T04:29:14.131Z,52.60
2022-10-31T04:31:40.904Z,54.27
2022-10-31T04:34:08.420Z,52.57
2022-10-31T04:36:35.236Z,57.10
2022-10-31T04:39:02.085Z,53.23
2022-10-31T04:41:28.997Z,58.17
2022-10-31T04:43:55.791Z,56.47
2022-10-31T04:46:22.544Z,59.07
2022-10-31T04:48:49.602Z,59.23
2022-10-31T04:51:16.400Z,54.93
2022-10-31T04:53:43.209Z,56.50
2022-10-31T04:56:10.010Z,53.83
2022-10-31T04:58:36.776Z,60.23
2022-10-31T05:01:03.688Z,59.87
2022-10-31T05:03:30.713Z,55.13
2022-10-31T05:05:57.508Z,57.00
2022-10-31T05:08:24.312Z,63.57
2022-10-31T05:10:51.211Z,51.00
2022-10-31T05:13:18.146Z,56.97
2022-10-31T05:15:44.957Z,57.40
2022-10-31T05:18:11.813Z,60.00
2022-10-31T05:20:38.632Z,56.73
2022-10-31T05:23:05.386Z,60.03
2022-10-31T05:25:32.197Z,59.87
2022-10-31T05:27:59.376Z,60.70
2022-10-31T05:30:28.859Z,62.20
2022-10-31T05:32:55.765Z,62.23
2022-10-31T05:35:28.415Z,59.67
2022-10-31T05:37:55.334Z,58.30
2022-10-31T05:40:22.515Z,56.30
2022-10-31T05:42:51.136Z,54.53
2022-10-31T05:45:18.400Z,56.00
2022-10-31T05:48:11.192Z,52.80
2022-10-31T05:50:38.009Z,56.17
2022-10-31T05:53:05.915Z,52.87
2022-10-31T05:55:33.104Z,55.27
2022-10-31T05:58:00.324Z,52.97
2022-10-31T06:00:27.557Z,53.43
2022-10-31T06:03:01.417Z,56.30
2022-10-31T06:05:28.797Z,59.93
2022-10-31T06:07:55.701Z,55.90
2022-10-31T06:10:22.610Z,54.10
2022-10-31T06:12:49.604Z,55.70
2022-10-31T06:15:21.090Z,59.70
2022-10-31T06:18:02.452Z,61.93
2022-10-31T06:20:29.692Z,60.30
2022-10-31T06:22:56.485Z,59.63
2022-10-31T06:25:23.345Z,63.77
2022-10-31T06:27:50.144Z,62.17
2022-10-31T06:30:17.022Z,60.70
2022-10-31T06:32:43.836Z,61.37
2022-10-31T06:35:10.699Z,61.97
2022-10-31T06:37:37.766Z,62.23
2022-10-31T06:40:04.984Z,62.17
2022-10-31T06:42:31.812Z,57.87
2022-10-31T06:44:58.568Z,59.83
2022-10-31T06:47:26.328Z,61.30
2022-10-31T06:49:53.105Z,63.50
2022-10-31T06:52:19.874Z,65.57
2022-10-31T06:54:46.664Z,62.83
2022-10-31T06:57:13.477Z,62.47
2022-10-31T06:59:40.341Z,63.60
2022-10-31T07:02:10.307Z,66.33
2022-10-31T07:04:37.197Z,62.83
2022-10-31T07:07:04.032Z,60.47
2022-10-31T07:09:30.833Z,44.20
2022-10-31T07:11:57.613Z,45.50
2022-10-31T07:14:24.385Z,46.43
2022-10-31T07:16:51.891Z,45.67
2022-10-31T07:19:18.881Z,45.50
2022-10-31T07:21:45.677Z,44.63
2022-10-31T07:24:12.560Z,48.07
2022-10-31T07:26:39.404Z,49.33
2022-10-31T07:29:06.237Z,47.00
2022-10-31T07:31:33.053Z,51.40
2022-10-31T07:33:59.847Z,47.97
2022-10-31T07:36:26.602Z,49.67
2022-10-31T07:38:53.413Z,49.77
2022-10-31T07:41:20.231Z,51.00
2022-10-31T07:43:47.088Z,52.20
2022-10-31T07:46:13.925Z,51.83
2022-10-31T07:48:40.757Z,48.27
2022-10-31T07:51:08.007Z,51.73
2022-10-31T07:53:34.799Z,47.30
2022-10-31T07:56:01.717Z,47.13
2022-10-31T07:58:28.482Z,48.37
2022-10-31T08:00:55.398Z,49.03
2022-10-31T08:03:22.288Z,49.70
2022-10-31T08:05:49.064Z,46.03
2022-10-31T08:08:16.044Z,51.27
2022-10-31T08:10:42.955Z,50.17
2022-10-31T08:13:11.736Z,53.13
2022-10-31T08:15:40.578Z,53.30
2022-10-31T08:18:07.888Z,54.30
2022-10-31T08:20:34.713Z,58.30
2022-10-31T08:23:03.261Z,58.10
2022-10-31T08:25:33.880Z,57.37
2022-10-31T08:28:04.480Z,57.57
2022-10-31T08:30:32.386Z,57.80
2022-10-31T08:33:14.630Z,57.43
2022-10-31T08:35:41.611Z,56.80
2022-10-31T08:38:09.856Z,58.43
2022-10-31T08:40:36.761Z,59.20
2022-10-31T08:43:08.233Z,54.43
2022-10-31T08:45:35.714Z,59.13
2022-10-31T08:48:04.743Z,61.23
2022-10-31T08:50:33.358Z,57.63
2022-10-31T08:53:08.386Z,58.30
2022-10-31T08:55:36.432Z,63.70
2022-10-31T08:58:04.391Z,59.77
2022-10-31T09:00:31.684Z,54.70
2022-10-31T09:02:59.430Z,55.67
2022-10-31T09:05:26.475Z,54.80
2022-10-31T09:07:57.449Z,57.67
2022-10-31T09:10:24.880Z,60.13
2022-10-31T09:12:58.481Z,61.08
2022-10-31T09:15:25.916Z,58.03
2022-10-31T09:17:52.773Z,61.72
2022-10-31T09:20:20.103Z,62.25
2022-10-31T09:22:46.924Z,62.63
2022-10-31T09:25:13.842Z,63.33
2022-10-31T09:27:40.589Z,62.17
2022-10-31T09:30:07.973Z,63.20
2022-10-31T09:32:34.757Z,64.63
2022-10-31T09:35:01.618Z,65.80
2022-10-31T09:37:28.546Z,64.72
2022-10-31T09:39:55.330Z,60.05
2022-10-31T09:42:27.825Z,56.83
2022-10-31T09:44:57.480Z,58.70
2022-10-31T09:47:49.729Z,59.72
2022-10-31T09:50:20.872Z,65.18
2022-10-31T09:53:28.321Z,66.38
2022-10-31T09:55:55.116Z,66.00
2022-10-31T09:58:27.794Z,67.57
2022-10-31T10:00:55.786Z,65.93
2022-10-31T10:03:36.317Z,65.63
2022-10-31T10:06:16.064Z,67.68
2022-10-31T10:08:42.830Z,63.53
2022-10-31T10:11:18.509Z,65.85
2022-10-31T10:13:53.362Z,61.40
2022-10-31T10:16:34.322Z,65.32
2022-10-31T10:19:09.927Z,60.40
2022-10-31T10:21:43.650Z,59.63
2022-10-31T10:24:10.448Z,65.57
2022-10-31T10:26:38.696Z,61.35
2022-10-31T10:29:28.140Z,67.30
2022-10-31T10:31:54.966Z,63.63
2022-10-31T10:34:33.610Z,64.00
2022-10-31T10:37:05.797Z,62.28
2022-10-31T10:39:54.806Z,57.83
2022-10-31T10:42:40.024Z,63.70
2022-10-31T10:45:36.287Z,62.05
2022-10-31T10:48:16.641Z,59.50
2022-10-31T10:50:50.854Z,62.47
2022-10-31T10:54:09.476Z,60.95
2022-10-31T10:56:49.844Z,61.25
2022-10-31T10:59:18.851Z,62.33
2022-10-31T11:01:45.674Z,60.15
2022-10-31T11:04:32.769Z,57.05
2022-10-31T11:07:04.868Z,58.35
2022-10-31T11:09:32.068Z,54.70
2022-10-31T11:11:58.997Z,57.10
2022-10-31T11:14:25.908Z,60.20
2022-10-31T11:17:08.887Z,59.13
2022-10-31T11:19:35.964Z,62.97
2022-10-31T11:22:09.819Z,49.90
2022-10-31T11:24:41.624Z,53.33
2022-10-31T11:27:21.225Z,53.70
2022-10-31T11:29:48.278Z,55.90
2022-10-31T11:32:26.072Z,47.25
2022-10-31T11:34:57.877Z,42.85
2022-10-31T11:37:32.700Z,39.72
2022-10-31T11:40:00.688Z,33.00
2022-10-31T11:42:36.047Z,45.60
2022-10-31T11:45:03.619Z,44.45
2022-10-31T11:47:31.012Z,38.45
2022-10-31T11:49:57.944Z,35.15
2022-10-31T11:52:27.116Z,35.30
2022-10-31T11:55:02.582Z,27.95
2022-10-31T11:57:45.573Z,31.27
2022-10-31T12:00:24.053Z,31.05
2022-10-31T12:02:51.273Z,28.55
2022-10-31T12:05:24.668Z,29.63
2022-10-31T12:07:51.514Z,30.42
2022-10-31T12:10:18.290Z,30.50
2022-10-31T12:12:57.329Z,29.25
2022-10-31T12:15:45.425Z,28.48
2022-10-31T12:18:30.497Z,31.38
2022-10-31T12:21:13.379Z,30.65
2022-10-31T12:23:53.418Z,28.65
2022-10-31T12:26:33.316Z,28.55
2022-10-31T12:29:02.901Z,30.00
2022-10-31T12:31:36.007Z,29.38
2022-10-31T12:34:21.466Z,30.10
2022-10-31T12:37:06.486Z,24.55
2022-10-31T12:39:51.561Z,28.45
2022-10-31T12:42:42.973Z,25.20
2022-10-31T12:45:31.195Z,27.52
2022-10-31T12:48:29.868Z,26.60
2022-10-31T12:51:15.575Z,27.80
2022-10-31T12:53:48.501Z,25.90
2022-10-31T12:57:03.193Z,28.33
2022-10-31T12:59:38.605Z,23.35
2022-10-31T13:02:21.658Z,27.50
2022-10-31T13:05:17.789Z,27.95
2022-10-31T13:08:25.655Z,25.75
2022-10-31T13:10:57.199Z,24.17
2022-10-31T13:13:28.835Z,26.27
2022-10-31T13:16:03.872Z,19.70
2022-10-31T13:18:56.772Z,20.85
2022-10-31T13:21:28.621Z,21.88
2022-10-31T13:23:55.570Z,23.88
2022-10-31T13:26:22.460Z,25.85
2022-10-31T13:29:06.753Z,26.00
2022-10-31T13:31:34.046Z,25.17
2022-10-31T13:34:06.001Z,27.13
2022-10-31T13:36:46.592Z,23.40
2022-10-31T13:39:46.743Z,25.90
2022-10-31T13:42:19.376Z,24.83
2022-10-31T13:44:46.143Z,22.83
2022-10-31T13:47:28.609Z,23.42
2022-10-31T13:50:21.313Z,24.33
2022-10-31T13:52:48.226Z,24.20
2022-10-31T13:55:36.174Z,26.45
2022-10-31T13:58:06.348Z,27.95
2022-10-31T14:00:37.216Z,22.48
2022-10-31T14:03:04.193Z,25.75
2022-10-31T14:05:35.377Z,26.77
2022-10-31T14:08:05.817Z,27.52
2022-10-31T14:10:37.611Z,31.42
2022-10-31T14:13:21.017Z,33.97
2022-10-31T14:15:57.645Z,36.17
2022-10-31T14:18:37.189Z,31.13
2022-10-31T14:21:26.487Z,34.90
2022-10-31T14:23:55.030Z,35.08
2022-10-31T14:26:32.753Z,33.63
2022-10-31T14:29:01.677Z,34.20
2022-10-31T14:31:33.322Z,34.08
2022-10-31T14:34:24.219Z,36.95
2022-10-31T14:37:00.117Z,36.63
2022-10-31T14:39:55.871Z,40.75
2022-10-31T14:42:41.182Z,39.92
2022-10-31T14:45:14.116Z,39.88
2022-10-31T14:47:50.037Z,38.28
2022-10-31T14:50:28.823Z,42.90
2022-10-31T14:52:57.717Z,41.95
2022-10-31T14:55:25.185Z,45.50
2022-10-31T14:58:10.157Z,47.60
2022-10-31T15:00:37.008Z,44.28
2022-10-31T15:03:06.904Z,40.35
2022-10-31T15:05:35.425Z,47.83
2022-10-31T15:08:02.189Z,50.20
2022-10-31T15:10:32.957Z,53.00
2022-10-31T15:13:18.335Z,54.33
2022-10-31T15:15:48.333Z,55.72
2022-10-31T15:18:21.765Z,55.58
2022-10-31T15:20:48.613Z,54.13
2022-10-31T15:23:28.577Z,55.17
2022-10-31T15:26:02.412Z,58.83
2022-10-31T15:28:29.224Z,59.35
2022-10-31T15:30:57.576Z,63.00
2022-10-31T15:33:26.482Z,59.90
2022-10-31T15:36:01.066Z,63.63
2022-10-31T15:38:28.671Z,61.85
2022-10-31T15:41:19.773Z,58.60
2022-10-31T15:43:46.560Z,57.00
2022-10-31T15:46:13.314Z,56.05
2022-10-31T15:48:41.648Z,58.65
2022-10-31T15:51:08.457Z,58.53
2022-10-31T15:53:52.336Z,57.58
2022-10-31T15:56:25.973Z,59.13
2022-10-31T15:58:53.788Z,60.00
2022-10-31T16:01:31.558Z,64.25
2022-10-31T16:04:13.508Z,64.32
2022-10-31T16:06:40.401Z,58.95
2022-10-31T16:09:23.574Z,60.10
2022-10-31T16:11:50.386Z,62.35
2022-10-31T16:14:25.302Z,64.65
2022-10-31T16:16:54.836Z,63.15
2022-10-31T16:19:23.005Z,62.85
2022-10-31T16:21:54.376Z,59.80
2022-10-31T16:24:26.105Z,58.47
2022-10-31T16:27:00.813Z,64.97
2022-10-31T16:29:27.586Z,62.22
2022-10-31T16:31:54.344Z,60.80
2022-10-31T16:34:26.267Z,68.75
2022-10-31T16:36:53.360Z,61.65
2022-10-31T16:39:20.225Z,64.57
2022-10-31T16:41:48.544Z,71.10
2022-10-31T16:44:17.120Z,73.72
2022-10-31T16:46:43.897Z,63.65
2022-10-31T16:49:11.039Z,73.72
2022-10-31T16:51:37.977Z,71.10
2022-10-31T16:54:04.898Z,68.20
2022-10-31T16:56:32.897Z,60.83
2022-10-31T16:59:01.046Z,72.43
2022-10-31T17:01:27.935Z,71.47
2022-10-31T17:03:55.772Z,67.05
2022-10-31T17:06:22.650Z,75.78
2022-10-31T17:08:49.461Z,79.80
2022-10-31T17:11:20.013Z,75.63
2022-10-31T17:13:46.850Z,76.65
2022-10-31T17:16:14.562Z,73.55
2022-10-31T17:18:41.626Z,72.72
2022-10-31T17:21:14.245Z,72.55
2022-10-31T17:23:41.043Z,67.43
2022-10-31T17:26:10.324Z,72.90
2022-10-31T17:28:37.432Z,72.13
2022-10-31T17:31:04.332Z,71.80
2022-10-31T17:33:31.116Z,65.68
2022-10-31T17:35:57.875Z,64.15
2022-10-31T17:38:24.731Z,62.55
2022-10-31T17:40:51.497Z,63.83
2022-10-31T17:43:18.869Z,55.30
2022-10-31T17:45:45.727Z,64.10
2022-10-31T17:48:13.064Z,72.15
2022-10-31T17:50:40.024Z,77.00
2022-10-31T17:53:06.858Z,70.05
2022-10-31T17:55:37.213Z,75.93
2022-10-31T17:58:04.565Z,69.85
2022-10-31T18:00:31.459Z,66.53
2022-10-31T18:02:58.588Z,65.28
2022-10-31T18:05:25.605Z,63.95
2022-10-31T18:07:52.529Z,59.13
2022-10-31T18:10:19.325Z,62.33
2022-10-31T18:12:46.160Z,77.43
2022-10-31T18:15:13.111Z,86.00
2022-10-31T18:17:42.136Z,80.07
2022-10-31T18:20:10.056Z,84.50
2022-10-31T18:22:36.949Z,82.85
2022-10-31T18:25:04.241Z,67.75
2022-10-31T18:27:31.126Z,76.72
2022-10-31T18:29:58.025Z,83.32
2022-10-31T18:32:24.822Z,88.53
2022-10-31T18:34:51.619Z,75.10
2022-10-31T18:37:18.392Z,78.97
2022-10-31T18:39:46.061Z,80.38
2022-10-31T18:42:12.900Z,72.53
2022-10-31T18:44:40.779Z,46.67
2022-10-31T18:47:07.565Z,44.33
2022-10-31T18:49:34.459Z,41.47
2022-10-31T18:52:01.479Z,40.20
2022-10-31T18:54:28.258Z,42.33
2022-10-31T18:56:55.980Z,43.88
2022-10-31T18:59:22.843Z,41.40
2022-10-31T19:01:49.717Z,43.92
2022-10-31T19:04:16.694Z,46.63
2022-10-31T19:06:43.529Z,46.45
2022-10-31T19:09:10.444Z,52.83
2022-10-31T19:11:37.985Z,53.90
2022-10-31T19:14:08.135Z,55.58
2022-10-31T19:16:35.246Z,56.78
2022-10-31T19:19:02.104Z,56.80
2022-10-31T19:21:30.415Z,53.58
2022-10-31T19:23:58.168Z,54.13
2022-10-31T19:26:25.601Z,55.08
2022-10-31T19:28:53.367Z,55.03
2022-10-31T19:31:21.165Z,50.97
2022-10-31T19:33:48.101Z,53.55
2022-10-31T19:36:16.571Z,56.13
2022-10-31T19:38:44.708Z,56.60
2022-10-31T19:41:13.302Z,59.85
2022-10-31T19:43:40.185Z,65.55
2022-10-31T19:46:09.085Z,70.78
2022-10-31T19:48:38.400Z,76.82
2022-10-31T19:51:12.822Z,73.40
2022-10-31T19:53:39.860Z,71.03
2022-10-31T19:56:17.129Z,65.38
2022-10-31T19:58:43.960Z,66.70
2022-10-31T20:01:12.379Z,63.17
2022-10-31T20:03:42.058Z,58.28
2022-10-31T20:06:21.744Z,54.33
2022-10-31T20:08:48.623Z,58.80
2022-10-31T20:11:15.417Z,59.03
2022-10-31T20:13:42.220Z,61.65
2022-10-31T20:16:10.417Z,50.45
2022-10-31T20:18:37.487Z,52.35
2022-10-31T20:21:09.710Z,51.30
2022-10-31T20:23:36.576Z,48.67
2022-10-31T20:26:03.624Z,45.88
2022-10-31T20:28:31.208Z,47.95
2022-10-31T20:30:58.705Z,45.85
2022-10-31T20:33:25.801Z,46.78
2022-10-31T20:35:52.733Z,45.72
2022-10-31T20:38:19.488Z,45.70
2022-10-31T20:40:46.273Z,46.38
2022-10-31T20:43:13.130Z,44.85
2022-10-31T20:45:39.944Z,47.70
2022-10-31T20:48:06.860Z,46.20
2022-10-31T20:50:33.761Z,44.20
2022-10-31T20:53:00.872Z,47.15
2022-10-31T20:55:27.920Z,46.60
2022-10-31T20:57:54.719Z,49.47
2022-10-31T21:00:21.549Z,49.35
2022-10-31T21:02:48.346Z,49.75
2022-10-31T21:05:15.172Z,51.55
2022-10-31T21:07:42.474Z,52.03
2022-10-31T21:10:15.875Z,50.72
2022-10-31T21:12:43.745Z,51.67
2022-10-31T21:15:11.516Z,52.65
2022-10-31T21:17:38.398Z,51.63
2022-10-31T21:20:06.745Z,53.05
2022-10-31T21:22:33.596Z,53.17
2022-10-31T21:25:00.446Z,54.03
2022-10-31T21:27:27.288Z,55.67
2022-10-31T21:29:54.042Z,53.92
2022-10-31T21:32:20.867Z,54.75
2022-10-31T21:34:50.080Z,52.50
2022-10-31T21:37:17.058Z,54.58
2022-10-31T21:39:49.686Z,57.28
2022-10-31T21:42:21.319Z,56.75
2022-10-31T21:44:49.472Z,58.55
2022-10-31T21:47:16.409Z,58.90
2022-10-31T21:49:43.652Z,63.65
2022-10-31T21:52:10.765Z,59.47
2022-10-31T21:54:37.670Z,66.45
2022-10-31T21:57:04.497Z,74.68
2022-10-31T21:59:31.374Z,81.18
2022-10-31T22:02:00.786Z,88.78
2022-10-31T22:04:28.021Z,92.05
2022-10-31T22:06:54.946Z,90.78
2022-10-31T22:09:23.294Z,68.63
2022-10-31T22:11:50.161Z,86.80
2022-10-31T22:14:17.006Z,88.03
2022-10-31T22:16:43.857Z,84.60
2022-10-31T22:19:12.953Z,93.80
2022-10-31T22:21:44.443Z,100.32
2022-10-31T22:24:11.408Z,98.60
2022-10-31T22:26:38.380Z,97.53
2022-10-31T22:29:07.211Z,88.43
2022-10-31T22:31:34.276Z,97.78
2022-10-31T22:34:01.201Z,102.60
2022-10-31T22:36:29.590Z,93.75
2022-10-31T22:38:56.730Z,82.53
2022-10-31T22:41:25.468Z,80.60
2022-10-31T22:43:53.296Z,76.18
2022-10-31T22:46:27.550Z,85.53
2022-10-31T22:48:56.492Z,82.88
2022-10-31T22:51:24.943Z,91.78
2022-10-31T22:53:51.925Z,88.38
2022-10-31T22:56:21.981Z,86.72
2022-10-31T22:58:48.924Z,86.78
2022-10-31T23:01:17.478Z,80.20
2022-10-31T23:03:44.513Z,83.68
2022-10-31T23:06:18.943Z,83.82
2022-10-31T23:08:45.814Z,84.20
2022-10-31T23:11:21.398Z,76.07
2022-10-31T23:14:08.580Z,79.82
2022-10-31T23:16:36.156Z,83.10
2022-10-31T23:19:07.708Z,79.47
2022-10-31T23:21:54.876Z,78.32
2022-10-31T23:24:34.596Z,73.97
2022-10-31T23:27:11.495Z,74.95
2022-10-31T23:29:57.955Z,84.38
2022-10-31T23:32:29.548Z,84.63
2022-10-31T23:35:07.351Z,83.85
2022-10-31T23:37:35.116Z,89.18
2022-10-31T23:40:02.097Z,88.47
2022-10-31T23:42:29.137Z,81.95
2022-10-31T23:44:56.246Z,89.63
2022-10-31T23:47:23.132Z,94.57
2022-10-31T23:49:50.714Z,89.03
2022-10-31T23:52:17.667Z,87.75
2022-10-31T23:54:44.591Z,87.63
2022-10-31T23:57:12.484Z,88.60
2022-10-31T23:59:39.391Z,82.07
